createdAt,value
2018-06-18T00:02:01.360Z,99.90
2018-06-18T00:04:30.415Z,99.90
2018-06-18T00:06:59.481Z,99.90
2018-06-18T00:09:28.568Z,99.90
2018-06-18T00:11:57.635Z,99.90
2018-06-18T00:14:26.706Z,99.90
2018-06-18T00:16:55.767Z,99.90
2018-06-18T00:19:24.828Z,99.90
2018-06-18T00:21:53.955Z,99.90
2018-06-18T00:24:23.027Z,99.90
2018-06-18T00:29:20.779Z,99.90
2018-06-18T00:31:49.862Z,99.90
2018-06-18T00:34:18.929Z,99.90
2018-06-18T00:36:48.009Z,99.90
2018-06-18T00:39:17.087Z,99.90
2018-06-18T00:41:46.172Z,99.90
2018-06-18T00:46:43.912Z,99.90
2018-06-18T00:49:13.027Z,99.90
2018-06-18T00:51:42.087Z,99.90
2018-06-18T00:54:11.173Z,99.90
2018-06-18T00:56:40.241Z,99.90
2018-06-18T00:59:09.314Z,99.90
2018-06-18T01:01:38.441Z,99.90
2018-06-18T01:04:07.481Z,99.90
2018-06-18T01:06:36.543Z,99.90
2018-06-18T01:09:09.853Z,99.90
2018-06-18T01:11:38.911Z,99.90
2018-06-18T01:14:07.988Z,99.90
2018-06-18T01:16:37.070Z,99.90
2018-06-18T01:19:06.135Z,99.90
2018-06-18T01:21:35.191Z,99.90
2018-06-18T01:24:15.935Z,99.90
2018-06-18T01:26:45.146Z,99.90
2018-06-18T01:29:14.204Z,99.90
2018-06-18T01:31:43.275Z,99.90
2018-06-18T01:34:17.167Z,99.90
2018-06-18T01:36:46.230Z,99.90
2018-06-18T01:39:15.317Z,99.90
2018-06-18T01:41:44.780Z,99.90
2018-06-18T01:44:13.863Z,99.90
2018-06-18T01:46:42.952Z,99.90
2018-06-18T01:49:12.084Z,99.90
2018-06-18T01:51:41.149Z,99.90
2018-06-18T01:54:10.222Z,99.90
2018-06-18T01:56:39.303Z,99.90
2018-06-18T01:59:08.359Z,99.90
2018-06-18T02:01:37.800Z,99.90
2018-06-18T02:04:06.863Z,99.90
2018-06-18T02:06:35.933Z,99.90
2018-06-18T02:09:08.204Z,99.90
2018-06-18T02:11:43.126Z,99.90
2018-06-18T02:14:12.341Z,99.90
2018-06-18T02:16:41.411Z,99.90
2018-06-18T02:19:10.498Z,99.90
2018-06-18T02:21:39.925Z,99.90
2018-06-18T02:24:09.010Z,99.90
2018-06-18T02:26:38.079Z,99.90
2018-06-18T02:29:12.567Z,99.90
2018-06-18T02:31:46.975Z,99.90
2018-06-18T02:34:21.478Z,99.90
2018-06-18T02:36:55.835Z,99.90
2018-06-18T02:39:24.902Z,99.90
2018-06-18T02:41:53.981Z,99.90
2018-06-18T02:44:23.072Z,99.90
2018-06-18T02:46:52.205Z,99.90
2018-06-18T02:49:21.274Z,99.90
2018-06-18T02:51:50.375Z,99.90
2018-06-18T02:54:19.455Z,99.90
2018-06-18T02:56:55.951Z,99.90
2018-06-18T02:59:25.075Z,99.90
2018-06-18T03:01:54.168Z,99.90
2018-06-18T03:04:23.231Z,99.90
2018-06-18T03:06:52.313Z,99.90
2018-06-18T03:09:21.389Z,99.90
2018-06-18T03:11:50.455Z,99.90
2018-06-18T03:14:19.740Z,99.90
2018-06-18T03:16:48.804Z,99.90
2018-06-18T03:19:23.459Z,99.90
2018-06-18T03:21:58.054Z,99.90
2018-06-18T03:24:32.450Z,99.90
2018-06-18T03:27:06.902Z,99.90
2018-06-18T03:29:36.714Z,99.90
2018-06-18T03:32:09.433Z,99.90
2018-06-18T03:34:38.514Z,99.90
2018-06-18T03:37:08.925Z,99.90
2018-06-18T03:39:37.989Z,99.90
2018-06-18T03:42:07.488Z,99.90
2018-06-18T03:47:16.553Z,99.90
2018-06-18T03:49:45.651Z,99.90
2018-06-18T03:52:14.737Z,99.90
2018-06-18T03:54:43.952Z,99.90
2018-06-18T03:57:13.008Z,99.90
2018-06-18T03:59:42.116Z,99.90
2018-06-18T04:02:27.003Z,99.90
2018-06-18T04:05:01.920Z,99.90
2018-06-18T04:07:38.147Z,99.90
2018-06-18T04:10:12.615Z,99.90
2018-06-18T04:12:41.715Z,99.90
2018-06-18T04:15:10.808Z,99.90
2018-06-18T04:17:39.957Z,99.90
2018-06-18T04:20:08.983Z,99.90
2018-06-18T04:22:38.088Z,99.90
2018-06-18T04:25:07.191Z,99.90
2018-06-18T04:27:36.295Z,99.90
2018-06-18T04:30:05.449Z,99.90
2018-06-18T04:32:34.512Z,99.90
2018-06-18T04:35:05.923Z,99.90
2018-06-18T04:37:35.092Z,99.90
2018-06-18T04:40:04.540Z,99.90
2018-06-18T04:42:38.883Z,99.90
2018-06-18T04:45:13.268Z,99.90
2018-06-18T04:47:47.688Z,99.90
2018-06-18T04:50:22.130Z,99.90
2018-06-18T04:52:51.195Z,99.90
2018-06-18T04:55:20.296Z,99.90
2018-06-18T04:57:49.395Z,99.90
2018-06-18T05:01:23.726Z,99.90
2018-06-18T05:03:53.246Z,99.90
2018-06-18T05:06:22.702Z,99.90
2018-06-18T05:09:30.101Z,99.90
2018-06-18T05:11:59.165Z,99.90
2018-06-18T05:14:28.259Z,99.90
2018-06-18T05:16:57.364Z,99.90
2018-06-18T05:19:26.404Z,99.90
2018-06-18T05:21:55.470Z,99.90
2018-06-18T05:24:24.547Z,99.90
2018-06-18T05:26:55.140Z,99.90
2018-06-18T05:29:25.728Z,99.90
2018-06-18T05:31:54.876Z,99.90
2018-06-18T05:34:27.203Z,99.90
2018-06-18T05:36:58.710Z,99.90
2018-06-18T05:39:27.780Z,99.90
2018-06-18T05:41:56.852Z,99.90
2018-06-18T05:44:26.007Z,99.90
2018-06-18T05:46:55.046Z,99.90
2018-06-18T05:49:24.133Z,99.90
2018-06-18T05:51:53.202Z,99.90
2018-06-18T05:54:22.432Z,99.90
2018-06-18T05:56:51.475Z,99.90
2018-06-18T05:59:20.581Z,99.90
2018-06-18T06:01:49.685Z,99.90
2018-06-18T06:04:18.744Z,99.90
2018-06-18T06:06:47.851Z,99.90
2018-06-18T06:09:16.882Z,99.90
2018-06-18T06:11:45.999Z,99.90
2018-06-18T06:14:15.055Z,99.90
2018-06-18T06:16:44.118Z,99.90
2018-06-18T06:19:13.194Z,99.90
2018-06-18T06:21:42.324Z,99.90
2018-06-18T06:24:11.438Z,99.90
2018-06-18T06:26:40.549Z,99.90
2018-06-18T06:29:09.693Z,99.90
2018-06-18T06:31:38.788Z,99.90
2018-06-18T06:34:07.912Z,99.90
2018-06-18T06:36:36.955Z,99.90
2018-06-18T06:39:08.115Z,99.90
2018-06-18T06:41:37.374Z,99.90
2018-06-18T06:44:06.468Z,99.90
2018-06-18T06:46:35.574Z,99.90
2018-06-18T06:49:04.684Z,99.90
2018-06-18T06:51:33.750Z,99.90
2018-06-18T06:54:02.943Z,99.90
2018-06-18T06:56:31.980Z,99.90
2018-06-18T06:59:01.257Z,99.90
2018-06-18T07:01:30.355Z,99.90
2018-06-18T07:03:59.447Z,99.90
2018-06-18T07:06:28.513Z,99.90
2018-06-18T07:08:57.595Z,99.90
2018-06-18T07:11:26.681Z,99.90
2018-06-18T07:13:55.775Z,99.90
2018-06-18T07:16:24.825Z,99.90
2018-06-18T07:21:22.563Z,99.60
2018-06-18T07:23:51.642Z,99.20
2018-06-18T07:26:20.803Z,99.30
2018-06-18T07:28:49.895Z,99.10
2018-06-18T07:31:18.999Z,99.10
2018-06-18T07:33:48.141Z,99.20
2018-06-18T07:36:17.235Z,99.20
2018-06-18T07:38:46.291Z,99.10
2018-06-18T07:41:15.464Z,99.00
2018-06-18T07:43:44.575Z,98.60
2018-06-18T07:46:13.663Z,98.80
2018-06-18T07:48:42.751Z,99.20
2018-06-18T07:51:11.835Z,99.30
2018-06-18T07:53:40.927Z,99.10
2018-06-18T07:56:10.014Z,98.50
2018-06-18T07:58:39.063Z,98.60
2018-06-18T08:01:08.162Z,98.60
2018-06-18T08:03:37.239Z,98.50
2018-06-18T08:06:06.331Z,98.80
2018-06-18T08:08:35.388Z,99.30
2018-06-18T08:11:04.476Z,99.50
2018-06-18T08:13:33.567Z,99.50
2018-06-18T08:16:02.662Z,99.90
2018-06-18T08:18:31.750Z,99.90
2018-06-18T08:21:00.845Z,99.90
2018-06-18T08:23:29.913Z,99.90
2018-06-18T08:25:58.999Z,99.90
2018-06-18T08:28:28.095Z,99.90
2018-06-18T08:30:58.000Z,99.90
2018-06-18T08:33:27.095Z,99.90
2018-06-18T08:35:56.191Z,99.90
2018-06-18T08:38:25.276Z,99.90
2018-06-18T08:40:54.438Z,99.80
2018-06-18T08:43:23.849Z,99.30
2018-06-18T08:45:52.903Z,99.50
2018-06-18T08:48:27.455Z,99.20
2018-06-18T08:51:01.983Z,99.30
2018-06-18T08:53:36.467Z,99.50
2018-06-18T08:56:10.947Z,99.40
2018-06-18T08:58:45.395Z,99.00
2018-06-18T09:01:18.331Z,98.70
2018-06-18T09:03:52.487Z,98.40
2018-06-18T09:06:21.872Z,98.30
2018-06-18T09:08:55.192Z,98.10
2018-06-18T09:11:24.467Z,97.90
2018-06-18T09:13:53.767Z,97.10
2018-06-18T09:16:22.839Z,97.00
2018-06-18T09:18:52.293Z,96.60
2018-06-18T09:21:21.471Z,96.10
2018-06-18T09:23:50.565Z,96.10
2018-06-18T09:26:19.630Z,96.20
2018-06-18T09:28:48.754Z,96.40
2018-06-18T09:31:17.821Z,96.90
2018-06-18T09:33:46.891Z,97.10
2018-06-18T09:36:16.004Z,97.30
2018-06-18T09:38:45.067Z,97.00
2018-06-18T09:41:14.105Z,96.60
2018-06-18T09:43:43.175Z,96.50
2018-06-18T09:46:12.342Z,96.60
2018-06-18T09:48:46.806Z,96.40
2018-06-18T09:51:21.399Z,96.60
2018-06-18T09:53:55.956Z,96.80
2018-06-18T09:56:30.519Z,96.10
2018-06-18T09:59:05.076Z,96.40
2018-06-18T10:01:34.449Z,96.50
2018-06-18T10:04:04.684Z,96.90
2018-06-18T10:06:35.779Z,97.30
2018-06-18T10:11:36.275Z,97.40
2018-06-18T10:14:07.104Z,97.50
2018-06-18T10:16:36.262Z,97.50
2018-06-18T10:19:05.305Z,97.60
2018-06-18T10:21:34.373Z,98.00
2018-06-18T10:24:03.478Z,97.90
2018-06-18T10:26:32.546Z,97.70
2018-06-18T10:29:01.632Z,97.70
2018-06-18T10:31:30.716Z,97.80
2018-06-18T10:34:05.354Z,97.50
2018-06-18T10:36:39.818Z,97.20
2018-06-18T10:39:14.436Z,97.20
2018-06-18T10:41:49.011Z,97.10
2018-06-18T10:44:18.063Z,97.10
2018-06-18T10:46:47.140Z,96.90
2018-06-18T10:49:16.205Z,97.10
2018-06-18T10:51:45.288Z,97.20
2018-06-18T10:54:14.423Z,97.50
2018-06-18T10:56:43.489Z,97.70
2018-06-18T10:59:12.543Z,97.30
2018-06-18T11:01:41.667Z,97.00
2018-06-18T11:04:16.140Z,96.90
2018-06-18T11:06:45.207Z,96.90
2018-06-18T11:09:14.291Z,96.50
2018-06-18T11:11:44.378Z,96.90
2018-06-18T11:14:13.486Z,97.00
2018-06-18T11:16:43.034Z,97.50
2018-06-18T11:19:17.404Z,98.20
2018-06-18T11:21:51.938Z,98.70
2018-06-18T11:24:26.686Z,99.30
2018-06-18T11:26:56.491Z,99.20
2018-06-18T11:29:25.901Z,99.40
2018-06-18T11:31:54.986Z,99.60
2018-06-18T11:34:24.075Z,99.70
2018-06-18T11:36:53.216Z,99.50
2018-06-18T11:39:22.091Z,99.10
2018-06-18T11:41:51.245Z,98.50
2018-06-18T11:44:20.270Z,97.90
2018-06-18T11:46:49.350Z,97.60
2018-06-18T11:49:18.435Z,97.90
2018-06-18T11:51:47.585Z,97.20
2018-06-18T11:54:16.643Z,96.90
2018-06-18T11:56:45.720Z,96.90
2018-06-18T11:59:20.235Z,97.10
2018-06-18T12:01:54.882Z,96.90
2018-06-18T12:04:29.364Z,97.00
2018-06-18T12:07:03.823Z,96.80
2018-06-18T12:09:33.994Z,96.40
2018-06-18T12:12:03.075Z,96.20
2018-06-18T12:14:32.143Z,95.90
2018-06-18T12:17:01.221Z,95.90
2018-06-18T12:19:30.290Z,95.70
2018-06-18T12:21:59.387Z,95.50
2018-06-18T12:24:28.524Z,95.60
2018-06-18T12:26:57.612Z,96.40
2018-06-18T12:29:26.681Z,96.80
2018-06-18T12:31:55.788Z,97.70
2018-06-18T12:34:24.875Z,98.60
2018-06-18T12:36:53.957Z,99.00
2018-06-18T12:39:23.021Z,98.90
2018-06-18T12:41:57.487Z,98.90
2018-06-18T12:44:26.612Z,98.80
2018-06-18T12:47:01.121Z,98.10
2018-06-18T12:49:35.754Z,98.00
2018-06-18T12:52:10.207Z,97.80
2018-06-18T12:55:42.464Z,98.10
2018-06-18T12:58:11.587Z,98.20
2018-06-18T13:00:40.643Z,97.60
2018-06-18T13:03:11.698Z,97.30
2018-06-18T13:05:40.791Z,97.10
2018-06-18T13:08:09.839Z,97.50
2018-06-18T13:10:38.939Z,98.00
2018-06-18T13:13:08.036Z,97.80
2018-06-18T13:15:37.119Z,97.50
2018-06-18T13:18:06.372Z,97.40
2018-06-18T13:20:35.507Z,96.70
2018-06-18T13:23:04.578Z,95.90
2018-06-18T13:25:33.648Z,94.80
2018-06-18T13:28:08.256Z,94.20
2018-06-18T13:30:37.344Z,94.60
2018-06-18T13:33:06.415Z,94.40
2018-06-18T13:35:35.515Z,94.20
2018-06-18T13:38:10.052Z,94.10
2018-06-18T13:40:44.545Z,93.80
2018-06-18T13:43:19.099Z,93.30
2018-06-18T13:45:52.402Z,93.10
2018-06-18T13:48:25.812Z,93.20
2018-06-18T13:53:23.564Z,93.90
2018-06-18T13:55:52.694Z,94.20
2018-06-18T13:58:21.590Z,94.00
2018-06-18T14:00:50.439Z,94.20
2018-06-18T14:03:19.216Z,94.30
2018-06-18T14:05:48.063Z,94.20
2018-06-18T14:08:16.855Z,93.90
2018-06-18T14:10:45.879Z,93.80
2018-06-18T14:15:43.167Z,93.30
2018-06-18T14:18:11.955Z,93.40
2018-06-18T14:20:40.773Z,93.40
2018-06-18T14:23:09.684Z,93.50
2018-06-18T14:25:38.493Z,93.30
2018-06-18T14:28:07.679Z,93.00
2018-06-18T14:30:41.835Z,92.80
2018-06-18T14:33:16.293Z,93.20
2018-06-18T14:35:50.582Z,92.70
2018-06-18T14:38:25.021Z,92.30
2018-06-18T14:40:53.854Z,92.40
2018-06-18T14:43:22.721Z,92.70
2018-06-18T14:45:51.603Z,93.30
2018-06-18T14:48:20.414Z,93.40
2018-06-18T14:50:49.455Z,93.60
2018-06-18T14:53:18.516Z,93.40
2018-06-18T14:56:09.450Z,93.20
2018-06-18T14:58:38.699Z,93.20
2018-06-18T15:01:07.755Z,92.80
2018-06-18T15:03:36.854Z,92.60
2018-06-18T15:06:05.920Z,92.40
2018-06-18T15:08:34.972Z,92.70
2018-06-18T15:11:04.020Z,92.70
2018-06-18T15:13:33.108Z,92.70
2018-06-18T15:16:07.651Z,92.00
2018-06-18T15:18:36.745Z,91.60
2018-06-18T15:21:06.204Z,90.60
2018-06-18T15:23:35.270Z,90.00
2018-06-18T15:26:05.847Z,90.00
2018-06-18T15:28:35.128Z,90.40
2018-06-18T15:31:04.178Z,91.50
2018-06-18T15:33:33.226Z,91.70
2018-06-18T15:36:02.315Z,92.20
2018-06-18T15:38:31.497Z,92.70
2018-06-18T15:41:00.443Z,92.80
2018-06-18T15:43:29.524Z,92.80
2018-06-18T15:45:58.679Z,93.10
2018-06-18T15:48:27.773Z,93.10
2018-06-18T15:50:56.870Z,93.10
2018-06-18T15:53:25.950Z,93.30
2018-06-18T15:55:55.045Z,93.40
2018-06-18T15:58:24.112Z,93.80
2018-06-18T16:00:53.158Z,94.10
2018-06-18T16:03:22.223Z,94.20
2018-06-18T16:05:51.298Z,94.40
2018-06-18T16:08:20.362Z,94.70
2018-06-18T16:10:49.455Z,95.00
2018-06-18T16:13:18.546Z,95.10
2018-06-18T16:15:47.609Z,94.90
2018-06-18T16:18:16.700Z,94.50
2018-06-18T16:20:45.781Z,94.30
2018-06-18T16:23:14.859Z,93.90
2018-06-18T16:25:43.954Z,93.70
2018-06-18T16:28:13.034Z,93.70
2018-06-18T16:30:42.117Z,93.60
2018-06-18T16:33:11.163Z,93.20
2018-06-18T16:35:46.738Z,93.20
2018-06-18T16:38:15.806Z,93.00
2018-06-18T16:40:44.887Z,93.20
2018-06-18T16:43:13.967Z,93.70
2018-06-18T16:45:43.093Z,94.10
2018-06-18T16:48:12.152Z,94.30
2018-06-18T16:50:41.379Z,95.00
2018-06-18T16:53:10.452Z,95.30
2018-06-18T16:55:39.607Z,95.60
2018-06-18T16:58:08.817Z,96.20
2018-06-18T17:00:37.843Z,96.60
2018-06-18T17:03:06.919Z,96.90
2018-06-18T17:05:35.993Z,97.10
2018-06-18T17:08:05.160Z,97.10
2018-06-18T17:10:34.294Z,97.30
2018-06-18T17:13:03.378Z,97.70
2018-06-18T17:15:32.474Z,97.90
2018-06-18T17:18:01.530Z,98.00
2018-06-18T17:20:30.636Z,98.30
2018-06-18T17:22:59.703Z,98.70
2018-06-18T17:25:28.779Z,99.20
2018-06-18T17:27:57.898Z,99.60
2018-06-18T17:30:26.965Z,99.80
2018-06-18T17:32:56.052Z,99.90
2018-06-18T17:35:25.113Z,99.90
2018-06-18T17:37:54.217Z,99.90
2018-06-18T17:40:23.279Z,99.90
2018-06-18T17:42:52.619Z,99.90
2018-06-18T17:45:21.701Z,99.90
2018-06-18T17:47:50.763Z,99.90
2018-06-18T17:50:19.985Z,99.90
2018-06-18T17:52:49.076Z,99.90
2018-06-18T17:55:18.172Z,99.90
2018-06-18T17:57:47.407Z,99.90
2018-06-18T18:00:16.491Z,99.90
2018-06-18T18:02:45.631Z,99.90
2018-06-18T18:07:43.400Z,99.90
2018-06-18T18:10:12.484Z,99.90
2018-06-18T18:12:41.583Z,99.90
2018-06-18T18:15:10.674Z,99.90
2018-06-18T18:17:39.772Z,99.90
2018-06-18T18:20:08.818Z,99.90
2018-06-18T18:22:37.872Z,99.90
2018-06-18T18:25:07.003Z,99.90
2018-06-18T18:27:36.076Z,99.90
2018-06-18T18:30:05.225Z,99.90
2018-06-18T18:35:02.938Z,99.90
2018-06-18T18:37:32.011Z,99.90
2018-06-18T18:40:01.079Z,99.90
2018-06-18T18:42:30.181Z,99.90
2018-06-18T18:44:59.268Z,99.90
2018-06-18T18:47:28.322Z,99.90
2018-06-18T18:49:57.399Z,99.90
2018-06-18T18:52:26.537Z,99.90
2018-06-18T18:55:32.873Z,99.90
2018-06-18T18:58:14.639Z,99.90
2018-06-18T19:03:13.962Z,99.90
2018-06-18T19:05:43.099Z,99.90
2018-06-18T19:08:14.571Z,99.90
2018-06-18T19:10:44.653Z,99.90
2018-06-18T19:13:17.280Z,99.90
2018-06-18T19:15:46.822Z,99.90
2018-06-18T19:18:15.900Z,99.90
2018-06-18T19:20:48.519Z,99.90
2018-06-18T19:25:46.646Z,99.90
2018-06-18T19:28:15.706Z,99.90
2018-06-18T19:30:48.022Z,99.90
2018-06-18T19:33:21.505Z,99.90
2018-06-18T19:35:50.623Z,99.90
2018-06-18T19:38:19.701Z,99.90
2018-06-18T19:40:48.782Z,99.90
2018-06-18T19:43:17.892Z,99.90
2018-06-18T19:45:50.506Z,99.90
2018-06-18T19:48:23.492Z,99.90
2018-06-18T19:50:52.597Z,99.90
2018-06-18T19:53:21.719Z,99.90
2018-06-18T19:55:50.803Z,99.90
2018-06-18T19:58:19.835Z,99.90
2018-06-18T20:00:51.749Z,99.90
2018-06-18T20:03:20.889Z,99.90
2018-06-18T20:05:51.476Z,99.90
2018-06-18T20:08:23.577Z,99.90
2018-06-18T20:10:52.754Z,99.90
2018-06-18T20:13:21.882Z,99.90
2018-06-18T20:15:51.162Z,99.90
2018-06-18T20:18:20.262Z,99.90
2018-06-18T20:20:49.359Z,99.90
2018-06-18T20:23:20.775Z,99.90
2018-06-18T20:25:56.927Z,99.90
2018-06-18T20:28:26.123Z,99.90
2018-06-18T20:30:55.183Z,99.90
2018-06-18T20:33:24.727Z,99.90
2018-06-18T20:36:03.500Z,99.90
2018-06-18T20:38:32.649Z,99.90
2018-06-18T20:41:01.744Z,99.90
2018-06-18T20:46:01.625Z,99.90
2018-06-18T20:48:30.891Z,99.90
2018-06-18T20:51:00.103Z,99.90
2018-06-18T20:53:29.288Z,99.90
2018-06-18T20:55:58.460Z,99.90
2018-06-18T20:58:27.614Z,99.90
2018-06-18T21:00:56.698Z,99.90
2018-06-18T21:03:25.788Z,99.90
2018-06-18T21:05:55.198Z,99.90
2018-06-18T21:08:24.277Z,99.90
2018-06-18T21:10:53.363Z,99.90
2018-06-18T21:13:22.499Z,99.90
2018-06-18T21:15:51.625Z,99.90
2018-06-18T21:20:49.423Z,99.90
2018-06-18T21:23:18.623Z,99.90
2018-06-18T21:25:47.687Z,99.90
2018-06-18T21:28:16.852Z,99.90
2018-06-18T21:30:46.080Z,99.90
2018-06-18T21:33:15.206Z,99.90
2018-06-18T21:35:44.310Z,99.90
2018-06-18T21:38:13.440Z,99.90
2018-06-18T21:40:42.538Z,99.90
2018-06-18T21:43:11.621Z,99.90
2018-06-18T21:45:40.698Z,99.90
2018-06-18T21:48:09.866Z,99.90
2018-06-18T21:50:39.005Z,99.90
2018-06-18T21:53:08.098Z,99.90
2018-06-18T21:55:37.200Z,99.90
2018-06-18T21:58:06.787Z,99.90
2018-06-18T22:00:38.617Z,99.90
2018-06-18T22:03:07.688Z,99.90
2018-06-18T22:05:36.907Z,99.90
2018-06-18T22:08:08.179Z,99.90
2018-06-18T22:10:37.267Z,99.90
2018-06-18T22:13:06.371Z,99.90
2018-06-18T22:15:35.503Z,99.90
2018-06-18T22:18:04.844Z,99.90
2018-06-18T22:20:33.935Z,99.90
2018-06-18T22:23:03.113Z,99.90
2018-06-18T22:25:32.205Z,99.90
2018-06-18T22:28:02.351Z,99.90
2018-06-18T22:30:31.460Z,99.90
2018-06-18T22:33:00.525Z,99.90
2018-06-18T22:35:29.584Z,99.90
2018-06-18T22:37:58.639Z,99.90
2018-06-18T22:40:27.770Z,99.90
2018-06-18T22:42:56.827Z,99.90
2018-06-18T22:45:25.925Z,99.90
2018-06-18T22:47:55.009Z,99.90
2018-06-18T22:50:24.229Z,99.90
2018-06-18T22:52:53.324Z,99.90
2018-06-18T22:55:22.423Z,99.90
2018-06-18T22:57:51.572Z,99.90
2018-06-18T23:00:20.716Z,99.90
2018-06-18T23:02:49.808Z,99.90
2018-06-18T23:05:18.917Z,99.90
2018-06-18T23:07:48.007Z,99.90
2018-06-18T23:10:17.103Z,99.90
2018-06-18T23:12:46.162Z,99.90
2018-06-18T23:15:15.400Z,99.90
2018-06-18T23:17:44.526Z,99.90
2018-06-18T23:20:13.599Z,99.90
2018-06-18T23:22:42.675Z,99.90
2018-06-18T23:25:11.782Z,99.90
2018-06-18T23:27:40.851Z,99.90
2018-06-18T23:30:09.963Z,99.90
2018-06-18T23:32:39.134Z,99.90
2018-06-18T23:35:08.233Z,99.90
2018-06-18T23:37:37.295Z,99.90
2018-06-18T23:40:06.394Z,99.90
2018-06-18T23:42:35.510Z,99.90
2018-06-18T23:45:04.731Z,99.90
2018-06-18T23:47:33.939Z,99.90
2018-06-18T23:50:03.008Z,99.90
2018-06-18T23:52:32.099Z,99.90
2018-06-18T23:55:01.185Z,99.90
2018-06-18T23:57:30.335Z,99.90
2018-06-18T23:59:59.477Z,99.90
